createdAt,value
2023-04-21T00:00:11.748Z,29.90
2023-04-21T00:56:12.432Z,20.00
2023-04-21T01:03:38.973Z,14.40
2023-04-21T01:08:12.245Z,17.00
2023-04-21T01:35:38.310Z,19.90
2023-04-21T01:39:41.782Z,21.10
2023-04-21T02:00:05.479Z,18.70
2023-04-21T02:03:59.142Z,16.70
2023-04-21T02:07:51.197Z,17.90
2023-04-21T02:11:45.050Z,14.50
2023-04-21T02:15:44.204Z,15.10
2023-04-21T02:19:40.042Z,19.10
2023-04-21T02:23:35.245Z,16.10
2023-04-21T02:27:30.070Z,18.90
2023-04-21T02:31:56.622Z,13.40
2023-04-21T02:35:36.030Z,11.20
2023-04-21T02:39:36.217Z,16.60
2023-04-21T02:43:28.997Z,17.40
2023-04-21T02:47:27.204Z,14.60
2023-04-21T02:51:30.029Z,19.20
2023-04-21T02:55:28.164Z,13.80
2023-04-21T02:59:26.229Z,22.10
2023-04-21T03:03:18.373Z,22.20
2023-04-21T03:07:12.954Z,12.30
2023-04-21T03:11:12.151Z,16.70
2023-04-21T03:15:11.975Z,18.40
2023-04-21T03:19:09.120Z,17.30
2023-04-21T03:23:09.006Z,15.40
2023-04-21T03:27:05.113Z,17.10
2023-04-21T03:30:54.066Z,14.90
2023-04-21T03:34:49.212Z,17.10
2023-04-21T03:38:46.028Z,14.10
2023-04-21T03:42:38.141Z,15.60
2023-04-21T03:46:37.067Z,18.60
2023-04-21T03:50:37.173Z,13.80
2023-04-21T03:54:32.039Z,17.70
2023-04-21T03:58:32.119Z,13.40
2023-04-21T04:02:35.120Z,16.10
2023-04-21T04:06:28.221Z,15.70
2023-04-21T04:10:23.333Z,23.10
2023-04-21T04:14:20.224Z,14.60
2023-04-21T04:18:19.985Z,20.50
2023-04-21T04:22:13.235Z,18.20
2023-04-21T04:26:07.968Z,16.10
2023-04-21T04:30:09.145Z,12.90
2023-04-21T04:33:58.977Z,11.80
2023-04-21T04:37:58.134Z,14.70
2023-04-21T04:41:50.987Z,13.30
2023-04-21T04:45:42.147Z,16.00
2023-04-21T04:49:42.021Z,16.70
2023-04-21T04:53:43.151Z,17.00
2023-04-21T05:02:13.584Z,20.80
2023-04-21T05:06:14.359Z,18.60
2023-04-21T05:10:14.468Z,17.30
2023-04-21T05:14:08.266Z,20.10
2023-04-21T05:18:11.473Z,19.10
2023-04-21T05:22:10.288Z,19.00
2023-04-21T05:26:05.418Z,18.50
2023-04-21T05:32:41.775Z,19.20
2023-04-21T05:36:41.540Z,17.60
2023-04-21T05:40:40.700Z,13.20
2023-04-21T05:49:07.029Z,19.30
2023-04-21T05:53:16.355Z,20.70
2023-04-21T05:57:20.199Z,23.30
2023-04-21T06:01:19.932Z,17.90
2023-04-21T06:05:42.644Z,18.60
2023-04-21T06:10:02.679Z,19.20
2023-04-21T06:14:26.497Z,20.70
2023-04-21T06:18:25.150Z,18.20
2023-04-21T06:26:24.415Z,15.00
2023-04-21T06:30:15.305Z,22.50
2023-04-21T06:34:16.388Z,17.50
2023-04-21T06:38:18.106Z,20.00
2023-04-21T06:42:19.325Z,16.80
2023-04-21T06:46:19.326Z,15.00
2023-04-21T06:54:15.400Z,15.20
2023-04-21T06:58:21.471Z,14.90
2023-04-21T07:02:32.492Z,15.20
2023-04-21T07:06:55.452Z,20.40
2023-04-21T07:10:57.281Z,17.70
2023-04-21T07:14:56.764Z,15.30
2023-04-21T07:18:56.893Z,16.70
2023-04-21T07:31:22.638Z,13.50
2023-04-21T07:39:40.551Z,12.70
2023-04-21T07:43:44.557Z,12.70
2023-04-21T07:52:17.799Z,13.50
2023-04-21T08:07:57.480Z,9.70
2023-04-21T08:11:42.765Z,9.00
2023-04-21T08:15:37.550Z,6.60
2023-04-21T08:19:36.621Z,12.80
2023-04-21T08:23:47.507Z,6.70
2023-04-21T08:27:44.552Z,6.40
2023-04-21T08:31:42.524Z,8.60
2023-04-21T08:36:05.536Z,6.00
2023-04-21T08:39:54.531Z,5.40
2023-04-21T08:47:56.567Z,6.40
2023-04-21T08:51:54.598Z,5.20
2023-04-21T08:55:49.352Z,5.20
2023-04-21T08:59:43.494Z,4.40
2023-04-21T09:03:41.773Z,5.80
2023-04-21T09:07:23.577Z,4.70
2023-04-21T09:11:29.689Z,5.00
2023-04-21T09:15:25.457Z,5.30
2023-04-21T09:19:33.775Z,5.80
2023-04-21T09:50:16.262Z,5.70
2023-04-21T09:58:18.374Z,4.10
2023-04-21T10:21:31.039Z,7.00
2023-04-21T10:25:25.826Z,5.20
2023-04-21T10:30:34.939Z,5.10
2023-04-21T10:46:50.559Z,5.40
2023-04-21T10:55:15.364Z,5.10
2023-04-21T11:03:50.558Z,5.40
2023-04-21T11:43:30.538Z,3.70
2023-04-21T11:55:07.680Z,3.90
2023-04-21T12:03:29.729Z,4.70
2023-04-21T12:15:41.256Z,3.80
2023-04-21T12:20:01.796Z,3.60
2023-04-21T12:26:54.435Z,6.20
2023-04-21T12:38:10.440Z,4.30
2023-04-21T12:41:52.531Z,4.80
2023-04-21T13:05:01.592Z,3.60
2023-04-21T13:09:38.729Z,4.80
2023-04-21T13:13:17.915Z,3.60
2023-04-21T13:22:13.632Z,2.90
2023-04-21T13:40:40.045Z,2.70
2023-04-21T13:48:10.550Z,3.50
2023-04-21T13:52:34.947Z,2.80
2023-04-21T13:56:56.263Z,4.20
2023-04-21T14:01:09.177Z,3.80
2023-04-21T14:04:58.341Z,4.10
2023-04-21T14:08:55.248Z,4.90
2023-04-21T14:12:55.410Z,3.30
2023-04-21T14:16:39.327Z,3.40
2023-04-21T14:24:28.409Z,4.60
2023-04-21T14:28:25.268Z,9.00
2023-04-21T14:36:11.435Z,54.20
2023-04-21T14:39:53.674Z,19.20
2023-04-21T14:47:51.458Z,14.30
2023-04-21T14:51:44.725Z,7.40
2023-04-21T14:55:19.473Z,5.70
2023-04-21T14:58:39.248Z,11.20
2023-04-21T15:02:30.811Z,8.10
2023-04-21T15:06:14.184Z,3.90
2023-04-21T15:10:12.800Z,4.40
2023-04-21T15:18:29.390Z,2.70
2023-04-21T15:22:16.279Z,6.00
2023-04-21T15:25:54.987Z,5.10
2023-04-21T15:29:30.113Z,3.10
2023-04-21T15:33:14.330Z,2.90
2023-04-21T15:36:56.245Z,3.20
2023-04-21T15:40:09.161Z,2.90
2023-04-21T15:43:33.297Z,3.30
2023-04-21T15:47:16.306Z,2.70
2023-04-21T15:50:50.191Z,3.00
2023-04-21T15:54:25.639Z,3.00
2023-04-21T15:58:30.377Z,2.70
2023-04-21T16:01:57.336Z,4.80
2023-04-21T16:05:33.110Z,2.70
2023-04-21T16:08:59.529Z,3.70
2023-04-21T16:12:43.157Z,2.90
2023-04-21T16:16:40.462Z,2.90
2023-04-21T16:20:38.073Z,4.60
2023-04-21T16:24:45.360Z,3.20
2023-04-21T16:28:25.111Z,3.80
2023-04-21T16:32:22.421Z,4.50
2023-04-21T16:36:21.463Z,3.60
2023-04-21T16:40:25.402Z,3.90
2023-04-21T16:44:24.319Z,3.20
2023-04-21T16:48:41.874Z,3.60
2023-04-21T16:52:49.334Z,3.50
2023-04-21T17:00:50.282Z,3.20
2023-04-21T17:05:05.766Z,4.90
2023-04-21T17:09:10.355Z,4.10
2023-04-21T17:13:23.318Z,4.00
2023-04-21T17:17:23.501Z,4.80
2023-04-21T17:21:13.322Z,5.90
2023-04-21T17:25:15.336Z,8.40
2023-04-21T17:29:22.842Z,6.70
2023-04-21T17:33:30.404Z,5.80
2023-04-21T17:37:24.266Z,7.60
2023-04-21T17:41:32.044Z,6.30
2023-04-21T17:45:35.234Z,7.90
2023-04-21T20:26:26.528Z,22.40
2023-04-21T20:30:23.391Z,19.10
2023-04-21T20:34:29.812Z,22.00
2023-04-21T21:01:50.829Z,23.70
2023-04-21T21:08:56.929Z,22.60
2023-04-21T21:24:04.942Z,30.70
2023-04-21T21:28:12.860Z,22.20
2023-04-21T21:32:23.001Z,32.30
2023-04-21T21:44:38.695Z,22.00
2023-04-21T21:55:56.075Z,18.90
2023-04-21T22:00:04.917Z,21.90
2023-04-21T22:21:16.282Z,24.40
2023-04-21T22:25:36.161Z,27.10
2023-04-21T22:50:05.578Z,26.50
2023-04-21T23:54:40.331Z,27.90
2023-04-21T23:58:32.163Z,24.00
